Time;durP1;ratioP1;P1;durP2;ratioP2;P2;SDS_P1;SDS_P2;PMS_P1;PMS_P2;Temp;Humidity;BMP_temperature;BMP_pressure;BME280_temperature;BME280_humidity;BME280_pressure;Samples;Min_cycle;Max_cycle;Signal;HPM_P1;HPM_P2
2022/07/06 00:02:20;;;;;;;4.70;4.30;;;;;;;16.49;82.57;97181.13;1733772;82;25666;-78
2022/07/06 00:04:46;;;;;;;5.12;4.65;;;;;;;16.46;82.65;97172.91;1733690;82;26408;-76
2022/07/06 00:07:13;;;;;;;5.10;4.70;;;;;;;16.47;82.77;97177.83;1736036;82;25705;-77
2022/07/06 00:09:42;;;;;;;7.00;4.70;;;;;;;16.46;82.74;97177.54;1736554;82;27405;-76
2022/07/06 00:12:10;;;;;;;5.17;4.70;;;;;;;16.48;82.73;97179.47;1735484;82;25597;-77
2022/07/06 00:14:36;;;;;;;5.17;4.83;;;;;;;16.48;82.65;97185.75;1733165;82;25461;-77
2022/07/06 00:17:03;;;;;;;4.90;4.50;;;;;;;16.49;82.67;97187.94;1733309;82;25763;-77
2022/07/06 00:19:30;;;;;;;6.05;5.25;;;;;;;16.51;82.70;97184.42;1733688;82;25682;-76
2022/07/06 00:21:56;;;;;;;5.33;4.83;;;;;;;16.53;82.72;97183.63;1668618;86;28311;-76
2022/07/06 00:24:23;;;;;;;5.15;4.78;;;;;;;16.52;82.75;97186.08;1680240;85;26534;-77
2022/07/06 00:26:49;;;;;;;5.55;5.15;;;;;;;16.49;82.74;97189.30;1680402;85;25698;-76
2022/07/06 00:29:16;;;;;;;6.03;5.03;;;;;;;16.50;82.71;97201.31;1680489;85;25723;-78
2022/07/06 00:31:43;;;;;;;5.70;5.20;;;;;;;16.50;82.69;97197.76;1680512;85;25663;-76
2022/07/06 00:34:09;;;;;;;5.05;4.62;;;;;;;16.52;82.79;97195.61;1680518;85;27518;-76
2022/07/06 00:36:36;;;;;;;4.83;4.47;;;;;;;16.51;82.83;97198.05;1680229;85;25686;-75
2022/07/06 00:39:02;;;;;;;5.58;5.10;;;;;;;16.48;82.97;97198.55;1680378;85;25253;-76
2022/07/06 00:41:29;;;;;;;5.92;4.70;;;;;;;16.45;82.88;97201.77;1680415;85;26401;-78
2022/07/06 00:43:57;;;;;;;5.58;5.08;;;;;;;16.43;82.64;97202.55;1680389;85;26010;-76
2022/07/06 00:46:32;;;;;;;5.35;4.95;;;;;;;16.42;82.45;97192.77;1680180;85;27391;-75
2022/07/06 00:48:59;;;;;;;5.22;4.78;;;;;;;16.39;82.47;97201.44;1680375;85;25779;-77
2022/07/06 00:51:32;;;;;;;5.83;5.17;;;;;;;16.38;82.57;97197.06;1680270;85;25718;-76
2022/07/06 00:54:04;;;;;;;5.45;4.97;;;;;;;16.39;82.65;97196.81;1680495;85;25821;-76
2022/07/06 00:56:32;;;;;;;6.17;5.20;;;;;;;16.39;82.65;97200.07;1680267;85;25706;-77
2022/07/06 00:59:01;;;;;;;5.30;4.90;;;;;;;16.38;82.64;97199.78;1680450;85;27563;-77
2022/07/06 01:01:28;;;;;;;5.45;4.95;;;;;;;16.35;82.58;97199.74;1680296;85;25835;-76
2022/07/06 01:03:55;;;;;;;5.00;4.60;;;;;;;16.35;82.63;97201.11;1680429;85;25649;-75
2022/07/06 01:06:21;;;;;;;4.95;4.60;;;;;;;16.34;82.67;97193.19;1680367;85;25798;-76
2022/07/06 01:08:48;;;;;;;5.70;5.20;;;;;;;16.36;82.75;97182.86;1680369;85;26035;-75
2022/07/06 01:11:16;;;;;;;5.40;4.90;;;;;;;16.37;82.81;97184.52;1680453;85;28254;-76
2022/07/06 01:13:43;;;;;;;4.75;4.37;;;;;;;16.39;82.84;97181.00;1680468;84;25790;-75
2022/07/06 01:16:10;;;;;;;5.12;4.62;;;;;;;16.44;82.77;97190.59;1684298;84;25766;-75
2022/07/06 01:18:37;;;;;;;4.90;4.58;;;;;;;16.46;82.73;97196.61;1692211;84;25790;-74
2022/07/06 01:21:13;;;;;;;5.40;5.00;;;;;;;16.45;82.70;97192.23;1692333;84;25285;-75
2022/07/06 01:23:42;;;;;;;5.80;5.30;;;;;;;16.47;82.70;97203.70;1692252;84;27430;-74
2022/07/06 01:26:15;;;;;;;5.25;4.85;;;;;;;16.45;82.71;97199.87;1692105;84;25639;-74
2022/07/06 01:28:42;;;;;;;5.47;5.03;;;;;;;16.48;82.86;97200.73;1689365;84;25758;-75
2022/07/06 01:31:18;;;;;;;5.33;4.92;;;;;;;16.52;82.78;97204.61;1692319;84;25786;-75
2022/07/06 01:33:45;;;;;;;5.70;5.20;;;;;;;16.53;82.75;97193.17;1692224;84;25755;-77
2022/07/06 01:36:12;;;;;;;5.83;5.33;;;;;;;16.53;82.74;97205.44;1692322;84;27412;-77
2022/07/06 01:38:54;;;;;;;6.37;5.83;;;;;;;16.49;82.71;97198.83;1702314;82;25477;-76
2022/07/06 01:41:21;;;;;;;6.05;5.55;;;;;;;16.49;82.75;97207.83;1746932;82;25224;-75
2022/07/06 01:43:48;;;;;;;6.22;5.72;;;;;;;16.51;82.65;97207.05;1748671;82;26548;-76
2022/07/06 01:46:15;;;;;;;6.28;5.12;;;;;;;16.51;82.56;97208.41;1733393;82;25767;-75
2022/07/06 01:48:41;;;;;;;5.67;5.28;;;;;;;16.53;82.60;97199.98;1748463;82;28317;-77
2022/07/06 01:51:08;;;;;;;6.45;5.78;;;;;;;16.52;82.51;97207.87;1733305;82;26418;-75
2022/07/06 01:53:35;;;;;;;6.35;5.85;;;;;;;16.55;82.49;97205.97;1748707;82;25693;-76
2022/07/06 01:56:02;;;;;;;6.70;6.12;;;;;;;16.54;82.51;97205.72;1718566;83;25732;-75
2022/07/06 01:58:28;;;;;;;6.67;6.08;;;;;;;16.58;82.60;97206.84;1733539;82;25686;-75
2022/07/06 02:00:55;;;;;;;6.53;5.92;;;;;;;16.61;82.58;97202.25;1748579;82;27440;-76
2022/07/06 02:03:22;;;;;;;6.78;6.15;;;;;;;16.63;82.53;97206.94;1748601;82;25655;-75
2022/07/06 02:05:48;;;;;;;7.17;6.58;;;;;;;16.65;82.50;97207.52;1733440;82;25639;-76
2022/07/06 02:08:15;;;;;;;6.87;6.28;;;;;;;16.63;82.46;97210.20;1748664;82;25730;-75
2022/07/06 02:10:41;;;;;;;6.65;6.15;;;;;;;16.54;82.30;97207.88;1748627;82;25417;-75
2022/07/06 02:13:08;;;;;;;7.12;6.53;;;;;;;16.52;82.41;97211.42;1733389;82;27409;-75
2022/07/06 02:15:35;;;;;;;6.87;6.20;;;;;;;16.51;82.44;97207.58;1769761;80;25733;-75
2022/07/06 02:18:01;;;;;;;8.18;7.35;;;;;;;16.49;82.58;97208.37;1763779;81;25784;-75
2022/07/06 02:20:28;;;;;;;7.87;7.03;;;;;;;16.50;82.60;97197.76;1748736;82;25820;-75
2022/07/06 02:22:55;;;;;;;7.72;7.12;;;;;;;16.49;82.62;97208.37;1779533;80;25715;-76
2022/07/06 02:25:21;;;;;;;7.42;6.83;;;;;;;16.49;82.62;97202.38;1763600;81;27473;-75
2022/07/06 02:27:48;;;;;;;7.80;7.10;;;;;;;16.53;82.59;97209.52;1748700;82;25216;-74
2022/07/06 02:30:14;;;;;;;9.38;6.72;;;;;;;16.56;82.60;97218.52;1779627;80;25709;-75
2022/07/06 02:32:41;;;;;;;7.28;6.60;;;;;;;16.59;82.60;97209.84;1763720;81;25773;-76
2022/07/06 02:35:08;;;;;;;7.15;6.55;;;;;;;16.61;82.57;97215.88;1748759;82;25723;-77
2022/07/06 02:37:34;;;;;;;6.95;6.37;;;;;;;16.59;82.59;97211.21;1779511;80;28300;-75
2022/07/06 02:40:01;;;;;;;6.47;5.80;;;;;;;16.60;82.62;97216.95;1763659;81;25855;-75
2022/07/06 02:42:27;;;;;;;7.65;6.97;;;;;;;16.62;82.63;97218.92;1748771;82;25748;-75
2022/07/06 02:44:54;;;;;;;6.78;6.17;;;;;;;16.64;82.59;97219.49;1779565;80;25664;-76
2022/07/06 02:47:21;;;;;;;6.50;6.00;;;;;;;16.63;82.56;97220.56;1763758;81;25708;-75
2022/07/06 02:49:48;;;;;;;6.45;5.75;;;;;;;16.65;82.60;97222.51;1748354;82;28295;-75
2022/07/06 02:52:14;;;;;;;5.85;5.42;;;;;;;16.68;82.54;97227.96;1779514;80;25408;-75
2022/07/06 02:54:41;;;;;;;5.95;5.47;;;;;;;16.69;82.50;97223.62;1763948;81;25250;-77
2022/07/06 02:57:08;;;;;;;6.15;5.65;;;;;;;16.70;82.45;97232.09;1748686;82;25829;-75
2022/07/06 02:59:34;;;;;;;6.58;5.97;;;;;;;16.65;82.47;97227.95;1779478;80;25693;-76
2022/07/06 03:02:01;;;;;;;8.55;5.75;;;;;;;16.61;82.48;97232.77;1763782;81;27359;-75
2022/07/06 03:04:27;;;;;;;7.30;5.90;;;;;;;16.56;82.58;97228.06;1748665;82;25722;-74
2022/07/06 03:06:54;;;;;;;7.08;6.20;;;;;;;16.51;82.68;97228.02;1779568;80;25720;-77
2022/07/06 03:09:20;;;;;;;5.80;5.40;;;;;;;16.51;82.86;97233.47;1763803;81;26439;-75
2022/07/06 03:11:47;;;;;;;6.05;5.55;;;;;;;16.55;82.88;97240.03;1748649;82;25877;-76
2022/07/06 03:14:13;;;;;;;6.78;6.20;;;;;;;16.60;82.79;97240.65;1779503;79;28008;-76
2022/07/06 03:16:40;;;;;;;6.80;6.10;;;;;;;16.57;82.77;97241.97;1763273;81;25709;-77
2022/07/06 03:19:07;;;;;;;7.15;6.28;;;;;;;16.55;82.79;97240.03;1748736;82;25698;-76
2022/07/06 03:21:33;;;;;;;6.83;6.22;;;;;;;16.54;82.85;97242.50;1779487;80;25635;-75
2022/07/06 03:24:00;;;;;;;6.35;5.85;;;;;;;16.52;82.90;97242.75;1763682;81;25931;-77
2022/07/06 03:26:27;;;;;;;7.00;6.37;;;;;;;16.57;82.91;97240.61;1748553;82;28302;-77
2022/07/06 03:28:53;;;;;;;6.25;5.75;;;;;;;16.61;82.84;97237.67;1779442;80;25712;-77
2022/07/06 03:31:20;;;;;;;12.65;6.25;;;;;;;16.62;82.83;97237.99;1763763;81;25680;-76
2022/07/06 03:33:46;;;;;;;6.15;5.65;;;;;;;16.65;82.76;97237.49;1748659;82;25807;-77
2022/07/06 03:36:13;;;;;;;6.37;5.87;;;;;;;16.64;82.73;97235.02;1779716;80;25664;-77
2022/07/06 03:38:40;;;;;;;6.33;5.83;;;;;;;16.60;82.78;97233.30;1763749;81;28219;-76
2022/07/06 03:41:06;;;;;;;6.50;6.00;;;;;;;16.60;82.89;97235.20;1748614;82;25653;-75
2022/07/06 03:43:33;;;;;;;8.70;6.65;;;;;;;16.60;82.86;97236.02;1779489;80;25701;-77
2022/07/06 03:46:00;;;;;;;6.20;5.70;;;;;;;16.56;82.89;97238.96;1763800;81;25878;-76
2022/07/06 03:48:26;;;;;;;7.50;6.15;;;;;;;16.53;82.95;97244.94;1748585;82;25935;-75
2022/07/06 03:50:53;;;;;;;6.90;6.35;;;;;;;16.52;83.11;97250.09;1779582;80;28235;-76
2022/07/06 03:53:20;;;;;;;6.65;6.05;;;;;;;16.56;83.11;97240.33;1763559;81;25230;-74
2022/07/06 03:58:32;;;;;;;6.65;6.05;;;;;;;16.64;83.02;97249.47;1779363;80;26467;-76
2022/07/06 04:00:59;;;;;;;6.90;6.40;;;;;;;16.68;82.97;97252.48;1763703;81;25874;-74
2022/07/06 04:03:25;;;;;;;7.10;5.67;;;;;;;16.68;82.82;97247.86;1748713;82;27590;-77
2022/07/06 04:05:53;;;;;;;6.33;5.83;;;;;;;16.69;82.80;97250.88;1779655;80;25747;-75
2022/07/06 04:08:19;;;;;;;7.17;6.17;;;;;;;16.72;82.82;97250.91;1763808;81;25697;-76
2022/07/06 04:10:46;;;;;;;6.65;5.62;;;;;;;16.73;82.76;97254.75;1748888;82;25736;-74
2022/07/06 04:13:12;;;;;;;6.40;5.90;;;;;;;16.75;82.82;97253.14;1779614;80;25700;-76
2022/07/06 04:15:39;;;;;;;6.33;5.78;;;;;;;16.75;82.73;97249.05;1757690;81;27620;-77
2022/07/06 04:18:06;;;;;;;6.17;5.58;;;;;;;16.76;82.72;97252.89;1751716;81;25662;-74
2022/07/06 04:20:33;;;;;;;6.20;5.70;;;;;;;16.76;82.71;97265.16;1751743;81;25685;-74
2022/07/06 04:23:00;;;;;;;6.50;5.90;;;;;;;16.74;82.66;97256.41;1753345;81;25733;-73
2022/07/06 04:25:27;;;;;;;6.37;5.87;;;;;;;16.65;82.65;97253.84;1753787;81;25745;-74
2022/07/06 04:27:54;;;;;;;5.12;4.72;;;;;;;16.60;82.83;97251.55;1752767;81;27361;-74
2022/07/06 04:30:20;;;;;;;6.22;5.72;;;;;;;16.62;82.93;97259.80;1751534;81;25645;-73
2022/07/06 04:32:47;;;;;;;6.33;5.75;;;;;;;16.64;82.99;97253.56;1751913;81;25654;-73
2022/07/06 04:35:13;;;;;;;6.37;5.87;;;;;;;16.68;82.99;97256.04;1751621;81;25706;-74
2022/07/06 04:37:40;;;;;;;9.53;6.30;;;;;;;16.72;82.99;97257.73;1751752;81;25275;-73
2022/07/06 04:40:09;;;;;;;7.45;6.85;;;;;;;16.76;82.91;97255.61;1751744;81;28072;-74
2022/07/06 04:42:35;;;;;;;8.60;7.80;;;;;;;16.77;82.88;97255.08;1751517;81;25707;-74
2022/07/06 04:45:02;;;;;;;9.13;8.35;;;;;;;16.78;82.81;97263.00;1748212;81;25742;-76
2022/07/06 04:47:28;;;;;;;9.43;8.53;;;;;;;16.73;82.85;97260.20;1751760;81;25674;-74
2022/07/06 04:49:55;;;;;;;10.10;9.18;;;;;;;16.66;82.93;97266.39;1751639;81;25215;-74
2022/07/06 04:52:21;;;;;;;11.40;9.88;;;;;;;16.64;83.18;97274.53;1751688;81;27437;-74
2022/07/06 04:54:48;;;;;;;9.68;8.88;;;;;;;16.61;83.28;97277.19;1751558;81;25732;-75
2022/07/06 04:57:14;;;;;;;10.88;9.88;;;;;;;16.58;83.43;97270.88;1751648;81;25718;-74
2022/07/06 04:59:41;;;;;;;11.00;9.80;;;;;;;16.63;83.54;97273.70;1751624;81;25757;-74
2022/07/06 05:02:08;;;;;;;11.03;9.93;;;;;;;16.67;83.42;97276.73;1751808;81;25615;-74
2022/07/06 05:04:34;;;;;;;9.70;8.80;;;;;;;16.66;83.52;97275.11;1751603;81;27538;-74
2022/07/06 05:07:01;;;;;;;9.35;8.53;;;;;;;16.64;83.46;97275.36;1751680;81;25311;-74
2022/07/06 05:09:27;;;;;;;8.58;7.80;;;;;;;16.64;83.40;97282.17;1751648;81;26750;-74
2022/07/06 05:11:54;;;;;;;7.17;6.55;;;;;;;16.65;83.32;97289.81;1751548;81;26344;-74
2022/07/06 05:14:20;;;;;;;7.10;6.50;;;;;;;16.66;83.02;97296.91;1751692;81;25641;-74
2022/07/06 05:16:47;;;;;;;8.23;7.42;;;;;;;16.62;82.79;97300.67;1762646;81;27346;-74
2022/07/06 05:19:14;;;;;;;7.92;7.10;;;;;;;16.62;82.86;97297.95;1751002;81;25705;-74
2022/07/06 05:21:40;;;;;;;8.58;7.78;;;;;;;16.66;83.07;97294.19;1781811;79;25782;-74
2022/07/06 05:24:07;;;;;;;8.35;7.55;;;;;;;16.70;83.11;97296.13;1752161;81;26341;-73
2022/07/06 05:26:34;;;;;;;8.53;7.72;;;;;;;16.76;83.12;97306.05;1750812;81;25648;-74
2022/07/06 05:29:00;;;;;;;10.10;8.00;;;;;;;16.82;83.33;97312.36;1781802;80;27519;-74
2022/07/06 05:31:27;;;;;;;7.65;6.97;;;;;;;16.87;83.17;97306.45;1752404;81;25754;-73
2022/07/06 05:33:54;;;;;;;7.78;7.17;;;;;;;16.84;83.07;97304.22;1750864;81;25420;-73
2022/07/06 05:36:20;;;;;;;7.70;7.00;;;;;;;16.82;83.07;97299.56;1781920;80;25814;-73
2022/07/06 05:38:47;;;;;;;8.15;6.62;;;;;;;16.84;82.99;97301.50;1752442;81;25686;-74
2022/07/06 05:41:13;;;;;;;10.68;7.42;;;;;;;16.90;82.96;97295.59;1750883;81;27586;-74
2022/07/06 05:43:40;;;;;;;6.97;6.37;;;;;;;16.99;82.94;97299.50;1781694;80;25820;-74
2022/07/06 05:46:06;;;;;;;7.87;7.17;;;;;;;17.06;82.70;97304.75;1752379;81;25769;-74
2022/07/06 05:51:18;;;;;;;9.48;6.95;;;;;;;17.16;82.36;97306.22;1781624;80;25720;-74
2022/07/06 05:53:44;;;;;;;8.63;7.92;;;;;;;17.26;82.28;97309.09;1752496;81;27422;-74
2022/07/06 05:56:11;;;;;;;8.13;7.42;;;;;;;17.34;82.69;97304.53;1750510;81;25727;-74
2022/07/06 05:58:38;;;;;;;7.65;6.95;;;;;;;17.38;82.77;97304.84;1781803;80;25255;-74
2022/07/06 06:01:06;;;;;;;8.95;8.00;;;;;;;17.44;82.74;97304.63;1752470;81;26408;-74
2022/07/06 06:03:33;;;;;;;8.68;7.87;;;;;;;17.52;82.35;97309.61;1750837;81;25521;-74
2022/07/06 06:06:00;;;;;;;9.50;8.33;;;;;;;17.58;82.02;97315.96;1781794;80;27535;-73
2022/07/06 06:08:26;;;;;;;9.15;8.35;;;;;;;17.61;82.10;97314.91;1752299;81;25701;-74
2022/07/06 06:10:53;;;;;;;9.80;8.65;;;;;;;17.66;81.86;97322.34;1750963;81;25225;-74
2022/07/06 06:13:20;;;;;;;9.78;8.63;;;;;;;17.61;81.69;97327.20;1781760;80;25736;-73
2022/07/06 06:15:46;;;;;;;10.40;9.30;;;;;;;17.58;81.92;97334.53;1752365;81;25523;-74
2022/07/06 06:18:16;;;;;;;9.40;8.40;;;;;;;17.65;81.82;97338.44;1750669;81;27575;-74
2022/07/06 06:20:41;;;;;;;9.95;8.88;;;;;;;17.70;81.57;97334.94;1781449;80;25430;-73
2022/07/06 06:23:08;;;;;;;12.03;9.18;;;;;;;17.76;81.46;97331.98;1752623;81;25675;-74
2022/07/06 06:25:38;;;;;;;8.78;7.90;;;;;;;17.82;81.34;97333.70;1751041;81;25684;-74
2022/07/06 06:28:07;;;;;;;8.53;7.70;;;;;;;17.87;81.11;97340.55;1781792;80;25935;-75
2022/07/06 06:30:35;;;;;;;7.85;7.15;;;;;;;17.92;80.93;97335.69;1752329;81;27336;-74
2022/07/06 06:33:09;;;;;;;11.60;7.87;;;;;;;17.93;80.79;97344.98;1750660;81;25758;-74
2022/07/06 06:35:38;;;;;;;6.37;5.87;;;;;;;17.92;81.00;97334.32;1661303;86;25774;-74
2022/07/06 06:38:05;;;;;;;5.70;5.20;;;;;;;17.92;80.88;97338.42;1661483;86;26435;-74
2022/07/06 06:40:32;;;;;;;6.20;4.22;;;;;;;17.92;80.89;97335.69;1661526;86;25922;-74
2022/07/06 06:42:58;;;;;;;4.95;3.58;;;;;;;17.93;80.53;97348.27;1661452;86;27502;-74
2022/07/06 06:45:25;;;;;;;4.83;3.62;;;;;;;17.90;80.19;97348.23;1661499;86;25881;-75
2022/07/06 06:47:51;;;;;;;3.72;3.50;;;;;;;17.82;79.88;97356.08;1661541;86;25832;-75
2022/07/06 06:50:18;;;;;;;3.95;3.60;;;;;;;17.78;79.96;97359.03;1661551;86;25778;-75
2022/07/06 06:52:45;;;;;;;4.35;3.98;;;;;;;17.80;80.04;97356.87;1661439;86;25780;-75
2022/07/06 06:55:12;;;;;;;3.35;3.15;;;;;;;17.87;80.27;97352.84;1661231;86;27392;-75
2022/07/06 06:57:38;;;;;;;5.58;3.62;;;;;;;17.99;80.32;97353.49;1661476;86;25747;-75
2022/07/06 07:00:07;;;;;;;4.83;3.47;;;;;;;18.06;80.14;97342.37;1661473;86;25822;-75
2022/07/06 07:02:34;;;;;;;5.28;4.37;;;;;;;18.09;80.08;97344.59;1661192;86;25878;-76
2022/07/06 07:05:00;;;;;;;4.00;3.45;;;;;;;18.17;79.87;97349.56;1661536;86;26967;-75
2022/07/06 07:07:27;;;;;;;3.90;3.30;;;;;;;18.26;79.96;97343.06;1661457;86;27619;-75
2022/07/06 07:09:53;;;;;;;4.10;3.10;;;;;;;18.33;79.77;97340.41;1661248;86;25981;-76
2022/07/06 07:12:20;;;;;;;4.15;3.40;;;;;;;18.39;79.40;97343.16;1661392;86;25915;-75
2022/07/06 07:14:47;;;;;;;4.67;4.08;;;;;;;18.42;79.33;97342.09;1661509;86;25682;-74
2022/07/06 07:17:14;;;;;;;4.67;4.25;;;;;;;18.51;79.01;97342.42;1667004;85;25691;-76
2022/07/06 07:19:41;;;;;;;4.78;4.40;;;;;;;18.57;78.52;97350.41;1669501;85;27424;-75
2022/07/06 07:22:08;;;;;;;4.25;3.95;;;;;;;18.63;78.14;97348.00;1669461;85;25509;-75
2022/07/06 07:24:35;;;;;;;5.17;4.62;;;;;;;18.70;77.90;97352.70;1669301;85;25798;-75
2022/07/06 07:27:01;;;;;;;4.70;4.20;;;;;;;18.75;77.52;97347.80;1669518;85;25782;-75
2022/07/06 07:29:28;;;;;;;4.75;4.35;;;;;;;18.77;77.31;97345.62;1669247;85;25766;-76
2022/07/06 07:31:54;;;;;;;4.53;4.20;;;;;;;18.85;77.10;97349.76;1704158;80;27563;-75
2022/07/06 07:34:21;;;;;;;6.12;4.00;;;;;;;18.90;76.75;97349.25;1760614;81;25448;-75
2022/07/06 07:36:48;;;;;;;4.80;4.20;;;;;;;18.94;77.03;97347.64;1760655;81;25693;-76
2022/07/06 07:39:14;;;;;;;5.78;4.50;;;;;;;18.97;77.12;97351.19;1760753;81;25741;-76
2022/07/06 07:41:42;;;;;;;5.20;4.80;;;;;;;19.05;77.14;97349.88;1760956;81;25730;-75
2022/07/06 07:44:08;;;;;;;5.40;4.87;;;;;;;19.00;76.66;97362.16;1760669;81;27448;-75
2022/07/06 07:46:35;;;;;;;8.98;5.12;;;;;;;18.97;76.92;97359.40;1760519;81;25697;-75
2022/07/06 07:49:02;;;;;;;5.12;4.67;;;;;;;19.02;76.73;97361.34;1760817;81;25753;-76
2022/07/06 07:51:30;;;;;;;4.90;4.40;;;;;;;19.08;76.51;97363.58;1760611;81;25710;-76
2022/07/06 07:53:56;;;;;;;5.92;4.28;;;;;;;19.12;76.29;97364.67;1760578;81;25661;-76
2022/07/06 07:56:23;;;;;;;5.75;4.20;;;;;;;19.02;76.01;97366.27;1761015;81;27373;-75
2022/07/06 07:58:49;;;;;;;5.83;4.05;;;;;;;18.94;76.06;97360.49;1760743;81;25738;-76
2022/07/06 08:01:16;;;;;;;4.95;4.55;;;;;;;18.97;76.31;97362.13;1761015;81;25810;-75
2022/07/06 08:03:43;;;;;;;6.33;4.50;;;;;;;19.30;76.87;97357.37;1760813;81;25700;-76
2022/07/06 08:06:09;;;;;;;4.30;3.95;;;;;;;19.73;76.51;97354.22;1760812;81;26700;-75
2022/07/06 08:08:36;;;;;;;3.77;3.37;;;;;;;20.12;75.67;97359.20;1760878;81;27309;-76
2022/07/06 08:11:03;;;;;;;3.67;3.25;;;;;;;20.62;74.91;97361.69;1760766;81;25812;-76
2022/07/06 08:13:29;;;;;;;3.42;3.22;;;;;;;21.08;74.20;97372.81;1760954;81;25788;-76
2022/07/06 08:15:56;;;;;;;5.22;3.60;;;;;;;21.47;73.12;97375.72;1759514;81;26026;-76
2022/07/06 08:18:23;;;;;;;3.67;3.30;;;;;;;21.69;72.70;97354.73;1733003;82;25765;-76
2022/07/06 08:20:49;;;;;;;5.35;3.50;;;;;;;22.04;71.57;97373.49;1733119;82;28218;-76
2022/07/06 08:23:16;;;;;;;4.75;3.12;;;;;;;22.04;70.78;97385.31;1732980;82;25957;-76
2022/07/06 08:25:42;;;;;;;3.60;3.30;;;;;;;21.85;70.17;97382.39;1733116;82;25702;-76
2022/07/06 08:28:09;;;;;;;3.52;3.25;;;;;;;21.70;69.91;97379.72;1733050;82;25814;-76
2022/07/06 08:30:36;;;;;;;3.92;3.58;;;;;;;21.82;70.06;97374.70;1733067;82;25738;-76
2022/07/06 08:33:02;;;;;;;4.08;3.35;;;;;;;22.31;69.90;97385.39;1733313;82;27512;-76
2022/07/06 08:35:29;;;;;;;3.72;2.90;;;;;;;22.78;69.83;97377.85;1733315;82;25718;-75
2022/07/06 08:37:56;;;;;;;3.50;3.02;;;;;;;23.18;68.82;97371.92;1726680;83;25769;-76
2022/07/06 08:40:23;;;;;;;2.90;2.70;;;;;;;23.50;68.08;97369.05;1737584;82;26041;-76
2022/07/06 08:42:54;;;;;;;5.67;2.85;;;;;;;23.80;66.84;97383.81;1737046;82;25711;-75
2022/07/06 08:45:22;;;;;;;3.85;2.90;;;;;;;23.81;65.80;97379.94;1734729;82;27435;-76
2022/07/06 08:47:50;;;;;;;3.55;2.83;;;;;;;23.66;65.37;97378.23;1737318;82;25755;-75
2022/07/06 08:50:17;;;;;;;6.47;3.15;;;;;;;23.83;65.30;97381.84;1737316;82;26395;-75
2022/07/06 08:52:44;;;;;;;3.77;2.60;;;;;;;24.15;64.24;97380.30;1737352;82;25909;-75
2022/07/06 08:55:11;;;;;;;4.12;3.22;;;;;;;24.32;64.29;97373.70;1737464;82;25775;-75
2022/07/06 08:57:39;;;;;;;2.67;2.47;;;;;;;24.66;63.48;97375.59;1737544;82;28174;-75
2022/07/06 09:00:09;;;;;;;2.65;2.45;;;;;;;24.96;63.40;97374.27;1737197;82;25839;-75
2022/07/06 09:02:36;;;;;;;3.00;2.70;;;;;;;25.31;63.13;97357.56;1714974;82;25722;-76
2022/07/06 09:05:04;;;;;;;4.78;2.37;;;;;;;25.41;62.02;97361.49;1737304;82;25729;-75
2022/07/06 09:07:30;;;;;;;4.35;3.17;;;;;;;25.41;61.29;97358.73;1737483;82;25975;-76
2022/07/06 09:10:00;;;;;;;5.22;2.80;;;;;;;24.99;60.54;97364.56;1737297;82;27353;-75
2022/07/06 09:12:29;;;;;;;3.33;3.08;;;;;;;24.69;61.22;97372.23;1737284;82;25738;-75
2022/07/06 09:14:57;;;;;;;3.12;2.80;;;;;;;24.76;61.12;97364.37;1737127;82;25715;-75
2022/07/06 09:17:29;;;;;;;5.62;2.95;;;;;;;24.90;60.75;97353.91;1745252;81;25697;-75
2022/07/06 09:19:57;;;;;;;4.28;3.02;;;;;;;25.22;60.19;97362.17;1724842;83;25758;-74
2022/07/06 09:22:32;;;;;;;5.47;3.22;;;;;;;25.50;59.55;97350.52;1729694;81;29042;-75
2022/07/06 09:25:14;;;;;;;4.50;3.02;;;;;;;25.59;59.13;97347.87;1724851;83;25965;-75
2022/07/06 09:27:49;;;;;;;6.28;2.92;;;;;;;25.62;58.40;97349.47;1723138;83;25416;-74
2022/07/06 09:30:16;;;;;;;5.10;3.08;;;;;;;25.37;57.06;97352.73;1744837;82;25705;-74
2022/07/06 09:32:50;;;;;;;5.87;3.00;;;;;;;24.63;57.53;97356.91;1744913;82;25523;-74
2022/07/06 09:35:30;;;;;;;6.92;3.90;;;;;;;24.22;57.74;97362.27;1744982;82;27434;-75
2022/07/06 09:38:09;;;;;;;4.83;4.00;;;;;;;23.79;58.06;97369.77;1744804;82;26021;-74
2022/07/06 09:40:40;;;;;;;6.03;4.60;;;;;;;23.15;58.63;97368.38;1744764;82;25386;-73
2022/07/06 09:43:22;;;;;;;11.68;4.83;;;;;;;22.74;59.77;97371.25;1745096;82;25734;-74
2022/07/06 09:45:56;;;;;;;6.42;4.95;;;;;;;22.59;59.90;97390.91;1727818;83;26530;-74
2022/07/06 09:48:25;;;;;;;5.35;4.85;;;;;;;22.13;59.73;97415.20;1727515;83;28308;-74
2022/07/06 09:50:58;;;;;;;7.72;5.00;;;;;;;21.31;60.07;97417.23;1742623;82;25793;-73
2022/07/06 09:53:27;;;;;;;11.63;8.95;;;;;;;20.75;61.51;97424.20;1698497;83;25934;-72
2022/07/06 09:55:57;;;;;;;11.95;10.75;;;;;;;20.04;62.57;97422.78;1742463;82;26675;-73
2022/07/06 09:58:25;;;;;;;15.05;13.08;;;;;;;19.38;64.03;97426.09;1727608;83;25745;-75
2022/07/06 10:00:52;;;;;;;16.42;14.58;;;;;;;18.76;65.04;97438.31;1727689;83;27435;-75
2022/07/06 10:03:19;;;;;;;17.35;15.65;;;;;;;18.35;66.65;97436.58;1742775;82;25715;-74
2022/07/06 10:05:48;;;;;;;20.77;18.70;;;;;;;18.09;67.36;97433.91;1727457;83;25816;-75
2022/07/06 10:08:17;;;;;;;22.17;19.40;;;;;;;17.96;68.14;97431.05;1727572;83;25830;-73
2022/07/06 10:10:44;;;;;;;21.97;19.87;;;;;;;17.94;69.03;97426.38;1742485;82;25729;-73
2022/07/06 10:13:13;;;;;;;22.48;20.15;;;;;;;17.97;69.77;97428.59;1727491;83;27583;-74
2022/07/06 10:15:40;;;;;;;25.70;22.62;;;;;;;18.06;70.35;97426.22;1724009;83;25841;-73
2022/07/06 10:18:10;;;;;;;23.18;20.97;;;;;;;18.27;70.90;97425.31;1668411;85;26195;-73
2022/07/06 10:20:40;;;;;;;22.37;20.25;;;;;;;18.60;71.38;97425.61;1687053;85;26470;-73
2022/07/06 10:23:09;;;;;;;22.80;20.55;;;;;;;18.92;71.15;97427.77;1686929;85;25874;-73
2022/07/06 10:25:36;;;;;;;29.72;24.47;;;;;;;19.16;70.98;97430.91;1686857;85;27399;-73
2022/07/06 10:28:10;;;;;;;27.45;24.30;;;;;;;19.15;70.94;97430.63;1686825;85;25777;-73
2022/07/06 10:30:33;;;;;;;25.70;23.00;;;;;;;19.17;70.92;97427.63;1683479;85;25819;-73
2022/07/06 10:33:01;;;;;;;26.10;23.32;;;;;;;19.28;71.47;97429.33;1678509;84;25893;-74
2022/07/06 10:35:27;;;;;;;26.48;23.77;;;;;;;19.27;71.17;97433.16;1703734;84;26894;-73
2022/07/06 10:38:06;;;;;;;26.05;23.18;;;;;;;19.29;71.62;97430.44;1703629;84;27405;-74
2022/07/06 10:43:21;;;;;;;25.70;22.80;;;;;;;19.76;71.74;97427.64;1685202;85;25992;-74
2022/07/06 10:45:50;;;;;;;25.25;22.60;;;;;;;20.17;72.09;97422.22;1685386;85;26483;-74
2022/07/06 10:48:17;;;;;;;27.00;21.87;;;;;;;20.18;71.20;97432.64;1685966;84;25728;-75
2022/07/06 10:50:50;;;;;;;23.90;21.45;;;;;;;20.02;70.84;97429.07;1664493;86;27536;-74
2022/07/06 10:53:25;;;;;;;21.73;19.40;;;;;;;19.88;71.00;97427.39;1689474;84;25787;-73
2022/07/06 10:55:56;;;;;;;22.60;20.20;;;;;;;19.80;70.36;97429.84;1689273;84;25438;-73
2022/07/06 10:58:48;;;;;;;21.12;19.15;;;;;;;19.80;70.96;97427.11;1689582;84;26013;-73
2022/07/06 11:01:16;;;;;;;21.25;18.05;;;;;;;19.83;70.92;97436.12;1681309;84;25838;-73
2022/07/06 11:03:47;;;;;;;19.82;17.92;;;;;;;19.76;70.53;97439.96;1649532;86;27477;-73
2022/07/06 11:06:22;;;;;;;20.10;18.12;;;;;;;19.76;71.08;97434.48;1616009;88;25571;-73
2022/07/06 11:08:58;;;;;;;18.37;16.60;;;;;;;19.82;71.31;97446.81;1626768;86;25800;-73
2022/07/06 11:11:40;;;;;;;18.50;15.78;;;;;;;19.89;71.25;97437.27;1611696;87;25750;-73
2022/07/06 11:14:18;;;;;;;19.23;15.00;;;;;;;20.16;71.66;97448.01;1639228;87;25337;-73
2022/07/06 11:16:53;;;;;;;16.42;14.83;;;;;;;20.53;71.72;97441.50;1584270;90;27672;-73
2022/07/06 11:19:26;;;;;;;16.67;15.00;;;;;;;20.88;71.57;97443.39;1584044;90;25895;-73
2022/07/06 11:22:07;;;;;;;15.75;12.75;;;;;;;21.05;70.79;97438.41;1573628;89;25965;-73
2022/07/06 11:24:38;;;;;;;15.20;12.07;;;;;;;21.11;70.36;97425.78;1562368;91;26582;-74
2022/07/06 11:27:06;;;;;;;22.52;11.18;;;;;;;21.46;69.47;97434.49;1523767;94;26921;-74
2022/07/06 11:29:38;;;;;;;13.68;11.25;;;;;;;21.80;68.80;97431.04;1546909;91;27444;-73
2022/07/06 11:32:04;;;;;;;11.15;10.05;;;;;;;21.91;68.29;97423.01;1541267;92;25925;-75
2022/07/06 11:34:34;;;;;;;12.00;10.90;;;;;;;22.12;67.93;97418.23;1561006;91;25820;-75
2022/07/06 11:37:04;;;;;;;13.80;10.15;;;;;;;22.19;67.67;97417.37;1563402;91;25892;-75
2022/07/06 11:39:36;;;;;;;10.70;9.70;;;;;;;22.31;67.00;97415.64;1564476;91;25866;-74
2022/07/06 11:42:05;;;;;;;13.55;9.88;;;;;;;22.32;66.54;97413.98;1591422;90;27712;-74
2022/07/06 11:44:32;;;;;;;10.85;9.83;;;;;;;22.27;65.91;97411.27;1591138;90;25779;-74